KBLV/BLV METAR and TAF weather

Enter ICAO airport designator
Station Type Date Time Source
KBLV METAR 2018/07/21 12:56 UTC NOAA

KBLV 211256Z AUTO 25009KT 10SM CLR 24/19 A2986 RMK AO2 SLP110 T02360185 $


Station Type Date Time Source
KBLV Decoded METAR 2018/07/21 12:56 UTC NOAA

Belleville, Scott AFB/MidAmerica Airport, IL, United States (KBLV) 38-33N 089-51W
Jul 21, 2018 - 08:56 AM EDT / 2018.07.21 1256 UTC
Wind: from the WSW (250 degrees) at 10 MPH (9 KT):0
Visibility: 10 mile(s):0
Sky conditions: clear
Temperature: 74.5 F (23.6 C)
Dew Point: 65.3 F (18.5 C)
Relative Humidity: 73%
Pressure (altimeter): 29.86 in. Hg (1011 hPa)
ob: KBLV 211256Z AUTO 25009KT 10SM CLR 24/19 A2986 RMK AO2 SLP110 T02360185
cycle: 13

Station Type Date Time Source
KBLV TAF 2018/07/21 08:05 UTC NOAA

TAF KBLV 210800Z 2108/2214 30009KT 9999 SKC QNH2980INS
BECMG 2113/2114 32012G18KT 9999 SCT050 QNH2980INS
TEMPO 2118/2121 25015G25KT
BECMG 2123/2124 32009KT 9999 SCT030 QNH2982INS
BECMG 2213/2214 32012G18KT 9999 SCT030 QNH2986INS TX30/2121Z TN20/2108Z


Example: see airport list